createdAt,value
2022-11-23T00:00:03.500Z,98084.81
2022-11-23T00:00:34.903Z,98086.59
2022-11-23T00:01:06.330Z,98108.09
2022-11-23T00:01:37.784Z,98090.13
2022-11-23T00:02:09.262Z,98094.78
2022-11-23T00:02:40.703Z,98081.47
2022-11-23T00:03:12.127Z,98099.69
2022-11-23T00:03:43.529Z,98098.00
2022-11-23T00:04:14.937Z,98102.16
2022-11-23T00:04:46.348Z,98106.47
2022-11-23T00:05:17.750Z,98107.94
2022-11-23T00:05:49.201Z,98109.88
2022-11-23T00:06:20.630Z,98102.50
2022-11-23T00:06:52.045Z,98108.72
2022-11-23T00:07:23.629Z,98108.72
2022-11-23T00:07:55.127Z,98096.25
2022-11-23T00:08:26.587Z,98095.25
2022-11-23T00:08:57.941Z,98103.91
2022-11-23T00:09:29.513Z,98099.25
2022-11-23T00:10:01.174Z,98104.34
2022-11-23T00:10:32.593Z,98105.16
2022-11-23T00:11:04.039Z,98100.84
2022-11-23T00:11:35.443Z,98102.78
2022-11-23T00:12:06.924Z,98101.63
2022-11-23T00:12:38.370Z,98106.75
2022-11-23T00:13:09.767Z,98102.91
2022-11-23T00:13:41.153Z,98105.63
2022-11-23T00:14:12.566Z,98110.41
2022-11-23T00:14:43.958Z,98111.41
2022-11-23T00:15:15.441Z,98107.09
2022-11-23T00:15:46.867Z,98104.03
2022-11-23T00:16:18.234Z,98113.34
2022-11-23T00:16:49.689Z,98100.84
2022-11-23T00:17:21.112Z,98110.81
2022-11-23T00:17:52.552Z,98106.97
2022-11-23T00:18:24.011Z,98099.91
2022-11-23T00:18:55.410Z,98107.75
2022-11-23T00:19:26.901Z,98116.75
2022-11-23T00:19:58.517Z,98114.34
2022-11-23T00:20:30.062Z,98109.69
2022-11-23T00:21:01.568Z,98102.31
2022-11-23T00:21:32.990Z,98102.78
2022-11-23T00:22:04.398Z,98118.66
2022-11-23T00:22:35.836Z,98109.69
2022-11-23T00:23:07.351Z,98119.31
2022-11-23T00:23:38.775Z,98120.59
2022-11-23T00:24:10.164Z,98110.16
2022-11-23T00:24:41.632Z,98112.53
2022-11-23T00:25:13.134Z,98113.22
2022-11-23T00:25:44.579Z,98122.19
2022-11-23T00:26:16.023Z,98112.88
2022-11-23T00:26:47.437Z,98114.47
2022-11-23T00:27:18.841Z,98115.78
2022-11-23T00:27:50.249Z,98122.38
2022-11-23T00:28:21.779Z,98115.66
2022-11-23T00:28:53.158Z,98118.22
2022-11-23T00:29:24.560Z,98118.66
2022-11-23T00:29:55.994Z,98116.28
2022-11-23T00:30:27.439Z,98112.75
2022-11-23T00:30:58.829Z,98114.34
2022-11-23T00:31:30.214Z,98114.66
2022-11-23T00:32:01.594Z,98110.81
2022-11-23T00:32:33.004Z,98113.06
2022-11-23T00:33:04.428Z,98119.00
2022-11-23T00:33:35.837Z,98124.75
2022-11-23T00:34:07.264Z,98116.28
2022-11-23T00:34:38.643Z,98114.34
2022-11-23T00:35:10.088Z,98121.06
2022-11-23T00:35:41.547Z,98109.19
2022-11-23T00:36:12.938Z,98126.38
2022-11-23T00:36:44.319Z,98123.31
2022-11-23T00:37:15.716Z,98121.41
2022-11-23T00:37:47.211Z,98129.13
2022-11-23T00:38:18.640Z,98121.25
2022-11-23T00:38:50.076Z,98122.84
2022-11-23T00:39:21.478Z,98124.75
2022-11-23T00:39:52.850Z,98124.47
2022-11-23T00:40:24.257Z,98128.28
2022-11-23T00:40:55.703Z,98121.72
2022-11-23T00:41:27.088Z,98117.53
2022-11-23T00:41:58.438Z,98125.72
2022-11-23T00:42:32.586Z,98132.44
2022-11-23T00:43:08.042Z,98125.25
2022-11-23T00:43:39.435Z,98131.63
2022-11-23T00:44:10.825Z,98129.56
2022-11-23T00:44:42.206Z,98120.25
2022-11-23T00:45:13.637Z,98122.19
2022-11-23T00:45:45.015Z,98128.09
2022-11-23T00:46:16.409Z,98129.25
2022-11-23T00:46:47.885Z,98135.38
2022-11-23T00:47:19.308Z,98126.50
2022-11-23T00:47:50.744Z,98125.38
2022-11-23T00:48:22.217Z,98126.84
2022-11-23T00:48:53.661Z,98120.09
2022-11-23T00:49:25.094Z,98122.84
2022-11-23T00:49:56.544Z,98132.94
2022-11-23T00:50:27.919Z,98123.16
2022-11-23T00:50:59.330Z,98120.44
2022-11-23T00:51:30.729Z,98127.81
2022-11-23T00:52:02.160Z,98115.47
2022-11-23T00:52:33.678Z,98130.22
2022-11-23T00:53:05.083Z,98125.09
2022-11-23T00:53:36.647Z,98131.50
2022-11-23T00:54:08.073Z,98119.47
2022-11-23T00:54:39.458Z,98127.19
2022-11-23T00:55:10.831Z,98126.84
2022-11-23T00:55:42.228Z,98124.47
2022-11-23T00:56:13.615Z,98127.19
2022-11-23T00:56:45.014Z,98118.66
2022-11-23T00:57:16.395Z,98123.31
2022-11-23T00:57:47.840Z,98130.38
2022-11-23T00:58:19.209Z,98123.66
2022-11-23T00:58:50.580Z,98115.94
2022-11-23T00:59:21.977Z,98113.84
2022-11-23T00:59:53.421Z,98129.91
2022-11-23T01:00:24.850Z,98121.91
2022-11-23T01:00:56.236Z,98133.91
2022-11-23T01:01:27.729Z,98128.78
2022-11-23T01:01:59.211Z,98123.50
2022-11-23T01:02:30.606Z,98128.28
2022-11-23T01:03:02.217Z,98128.28
2022-11-23T01:03:33.689Z,98132.63
2022-11-23T01:04:05.066Z,98126.97
2022-11-23T01:04:36.454Z,98130.16
2022-11-23T01:05:07.859Z,98128.44
2022-11-23T01:05:39.310Z,98126.06
2022-11-23T01:06:10.718Z,98131.50
2022-11-23T01:06:42.147Z,98128.44
2022-11-23T01:07:13.614Z,98125.72
2022-11-23T01:07:45.056Z,98129.25
2022-11-23T01:08:16.531Z,98124.47
2022-11-23T01:08:47.957Z,98129.25
2022-11-23T01:09:19.346Z,98133.09
2022-11-23T01:09:50.749Z,98140.94
2022-11-23T01:10:22.148Z,98135.94
2022-11-23T01:10:53.562Z,98135.50
2022-11-23T01:11:24.967Z,98146.41
2022-11-23T01:11:56.335Z,98144.00
2022-11-23T01:12:27.771Z,98136.75
2022-11-23T01:12:59.170Z,98134.69
2022-11-23T01:13:30.644Z,98132.31
2022-11-23T01:14:02.061Z,98137.59
2022-11-23T01:14:33.517Z,98134.88
2022-11-23T01:15:04.920Z,98128.28
2022-11-23T01:15:36.317Z,98123.50
2022-11-23T01:16:07.762Z,98131.50
2022-11-23T01:16:39.183Z,98131.16
2022-11-23T01:17:10.632Z,98136.28
2022-11-23T01:17:42.071Z,98130.03
2022-11-23T01:18:13.445Z,98130.84
2022-11-23T01:18:44.889Z,98131.50
2022-11-23T01:19:16.278Z,98133.75
2022-11-23T01:19:47.702Z,98142.41
2022-11-23T01:20:19.138Z,98136.97
2022-11-23T01:20:50.578Z,98132.63
2022-11-23T01:21:21.979Z,98131.84
2022-11-23T01:21:53.376Z,98126.69
2022-11-23T01:22:24.817Z,98133.44
2022-11-23T01:22:56.268Z,98128.28
2022-11-23T01:23:27.627Z,98129.56
2022-11-23T01:23:59.114Z,98136.47
2022-11-23T01:24:30.503Z,98132.16
2022-11-23T01:25:01.968Z,98132.63
2022-11-23T01:25:33.369Z,98135.38
2022-11-23T01:26:04.829Z,98140.94
2022-11-23T01:26:36.256Z,98141.75
2022-11-23T01:27:07.680Z,98137.88
2022-11-23T01:27:39.074Z,98139.19
2022-11-23T01:28:10.463Z,98142.41
2022-11-23T01:28:41.843Z,98146.72
2022-11-23T01:29:13.310Z,98157.97
2022-11-23T01:29:44.719Z,98140.03
2022-11-23T01:30:16.109Z,98141.63
2022-11-23T01:30:47.492Z,98138.22
2022-11-23T01:31:18.909Z,98134.69
2022-11-23T01:31:50.373Z,98136.16
2022-11-23T01:32:21.831Z,98139.69
2022-11-23T01:32:53.247Z,98148.50
2022-11-23T01:33:24.648Z,98150.78
2022-11-23T01:33:56.061Z,98150.94
2022-11-23T01:34:27.523Z,98147.38
2022-11-23T01:34:58.928Z,98143.84
2022-11-23T01:35:30.311Z,98150.94
2022-11-23T01:36:01.840Z,98158.63
2022-11-23T01:36:33.373Z,98150.44
2022-11-23T01:37:04.837Z,98151.06
2022-11-23T01:37:36.220Z,98145.47
2022-11-23T01:38:07.584Z,98157.19
2022-11-23T01:38:39.010Z,98157.47
2022-11-23T01:39:10.444Z,98147.72
2022-11-23T01:39:41.913Z,98150.44
2022-11-23T01:40:13.304Z,98153.50
2022-11-23T01:40:44.718Z,98157.03
2022-11-23T01:41:16.111Z,98151.56
2022-11-23T01:41:47.515Z,98160.88
2022-11-23T01:42:18.934Z,98152.38
2022-11-23T01:42:50.314Z,98159.28
2022-11-23T01:43:21.745Z,98154.28
2022-11-23T01:43:53.148Z,98155.09
2022-11-23T01:44:24.518Z,98156.22
2022-11-23T01:44:55.938Z,98153.81
2022-11-23T01:45:27.353Z,98165.19
2022-11-23T01:45:58.772Z,98150.94
2022-11-23T01:46:30.193Z,98154.75
2022-11-23T01:47:01.623Z,98158.63
2022-11-23T01:47:33.056Z,98156.03
2022-11-23T01:48:04.425Z,98170.00
2022-11-23T01:48:35.808Z,98149.97
2022-11-23T01:49:07.213Z,98156.69
2022-11-23T01:49:38.604Z,98163.44
2022-11-23T01:50:10.016Z,98157.19
2022-11-23T01:50:41.431Z,98155.25
2022-11-23T01:51:12.844Z,98156.38
2022-11-23T01:51:44.415Z,98158.28
2022-11-23T01:52:15.848Z,98156.38
2022-11-23T01:52:47.258Z,98162.28
2022-11-23T01:53:18.740Z,98166.78
2022-11-23T01:53:50.180Z,98153.16
2022-11-23T01:54:21.589Z,98161.69
2022-11-23T01:54:53.012Z,98161.34
2022-11-23T01:55:24.391Z,98162.13
2022-11-23T01:55:55.855Z,98170.31
2022-11-23T01:56:27.314Z,98149.63
2022-11-23T01:56:58.722Z,98157.19
2022-11-23T01:57:30.148Z,98168.88
2022-11-23T01:58:01.565Z,98166.47
2022-11-23T01:58:33.098Z,98153.66
2022-11-23T01:59:04.603Z,98161.28
2022-11-23T01:59:35.975Z,98165.81
2022-11-23T02:00:07.356Z,98156.84
2022-11-23T02:00:38.717Z,98152.53
2022-11-23T02:01:10.167Z,98175.78
2022-11-23T02:01:41.614Z,98153.16
2022-11-23T02:02:13.065Z,98158.28
2022-11-23T02:02:44.481Z,98155.56
2022-11-23T02:03:15.883Z,98166.16
2022-11-23T02:03:47.313Z,98159.41
2022-11-23T02:04:18.802Z,98158.63
2022-11-23T02:04:50.213Z,98159.56
2022-11-23T02:05:21.646Z,98154.13
2022-11-23T02:05:53.048Z,98154.13
2022-11-23T02:06:24.485Z,98155.72
2022-11-23T02:06:55.929Z,98156.03
2022-11-23T02:07:27.411Z,98154.13
2022-11-23T02:07:58.992Z,98150.09
2022-11-23T02:08:30.362Z,98152.81
2022-11-23T02:09:01.778Z,98150.44
2022-11-23T02:09:33.730Z,98154.44
2022-11-23T02:10:05.339Z,98152.53
2022-11-23T02:10:36.764Z,98158.78
2022-11-23T02:11:08.158Z,98155.25
2022-11-23T02:11:39.600Z,98152.53
2022-11-23T02:12:10.994Z,98154.56
2022-11-23T02:12:42.406Z,98152.38
2022-11-23T02:13:13.814Z,98157.19
2022-11-23T02:13:45.275Z,98153.66
2022-11-23T02:14:20.456Z,98159.56
2022-11-23T02:14:54.771Z,98151.72
2022-11-23T02:15:26.219Z,98154.56
2022-11-23T02:15:57.626Z,98165.81
2022-11-23T02:16:29.059Z,98153.66
2022-11-23T02:17:00.460Z,98155.56
2022-11-23T02:17:31.898Z,98152.03
2022-11-23T02:18:03.314Z,98166.16
2022-11-23T02:18:34.829Z,98161.84
2022-11-23T02:19:06.231Z,98162.63
2022-11-23T02:19:37.625Z,98161.69
2022-11-23T02:20:09.067Z,98167.13
2022-11-23T02:20:40.689Z,98159.91
2022-11-23T02:21:12.148Z,98155.56
2022-11-23T02:21:43.570Z,98158.94
2022-11-23T02:22:14.987Z,98156.38
2022-11-23T02:22:46.417Z,98167.28
2022-11-23T02:23:17.808Z,98165.81
2022-11-23T02:23:49.227Z,98168.09
2022-11-23T02:24:20.617Z,98163.44
2022-11-23T02:24:51.994Z,98168.09
2022-11-23T02:25:23.480Z,98157.19
2022-11-23T02:25:54.862Z,98161.97
2022-11-23T02:26:26.255Z,98157.66
2022-11-23T02:26:57.657Z,98167.75
2022-11-23T02:27:29.072Z,98162.63
2022-11-23T02:28:00.524Z,98176.72
2022-11-23T02:28:31.990Z,98173.53
2022-11-23T02:29:03.610Z,98175.13
2022-11-23T02:29:34.989Z,98163.44
2022-11-23T02:30:06.369Z,98177.06
2022-11-23T02:30:37.820Z,98172.41
2022-11-23T02:31:09.183Z,98166.94
2022-11-23T02:31:40.587Z,98173.53
2022-11-23T02:32:11.998Z,98179.00
2022-11-23T02:32:43.383Z,98184.13
2022-11-23T02:33:14.793Z,98182.97
2022-11-23T02:33:46.212Z,98186.03
2022-11-23T02:34:17.653Z,98176.25
2022-11-23T02:34:49.060Z,98178.19
2022-11-23T02:35:20.459Z,98174.63
2022-11-23T02:35:51.856Z,98177.69
2022-11-23T02:36:23.251Z,98170.31
2022-11-23T02:36:54.672Z,98178.84
2022-11-23T02:37:26.086Z,98174.97
2022-11-23T02:37:57.518Z,98175.78
2022-11-23T02:38:28.901Z,98176.25
2022-11-23T02:39:00.328Z,98174.63
2022-11-23T02:39:32.052Z,98171.44
2022-11-23T02:40:03.763Z,98171.78
2022-11-23T02:40:35.202Z,98176.09
2022-11-23T02:41:06.690Z,98171.91
2022-11-23T02:41:38.088Z,98168.72
2022-11-23T02:42:09.496Z,98179.78
2022-11-23T02:42:40.864Z,98168.72
2022-11-23T02:43:12.253Z,98174.19
2022-11-23T02:43:43.682Z,98185.09
2022-11-23T02:44:15.098Z,98181.22
2022-11-23T02:44:46.486Z,98183.66
2022-11-23T02:45:17.900Z,98181.72
2022-11-23T02:45:49.300Z,98180.09
2022-11-23T02:46:20.785Z,98190.19
2022-11-23T02:46:52.212Z,98182.03
2022-11-23T02:47:23.700Z,98186.38
2022-11-23T02:47:55.078Z,98183.50
2022-11-23T02:48:26.456Z,98183.94
2022-11-23T02:48:57.886Z,98196.00
2022-11-23T02:49:29.465Z,98192.94
2022-11-23T02:50:01.159Z,98194.41
2022-11-23T02:50:32.657Z,98190.53
2022-11-23T02:51:04.075Z,98182.03
2022-11-23T02:51:35.743Z,98191.81
2022-11-23T02:52:07.160Z,98190.19
2022-11-23T02:52:38.585Z,98187.47
2022-11-23T02:53:10.054Z,98188.94
2022-11-23T02:53:41.474Z,98186.22
2022-11-23T02:54:12.859Z,98185.75
2022-11-23T02:54:44.235Z,98181.75
2022-11-23T02:55:15.591Z,98187.69
2022-11-23T02:55:46.999Z,98186.53
2022-11-23T02:56:18.406Z,98187.47
2022-11-23T02:56:49.833Z,98182.03
2022-11-23T02:57:21.504Z,98189.09
2022-11-23T02:57:52.962Z,98193.25
2022-11-23T02:58:24.412Z,98185.09
2022-11-23T02:58:55.839Z,98191.00
2022-11-23T02:59:27.254Z,98190.53
2022-11-23T02:59:58.636Z,98189.41
2022-11-23T03:00:30.063Z,98191.66
2022-11-23T03:01:01.539Z,98191.34
2022-11-23T03:01:33.003Z,98196.63
2022-11-23T03:02:04.457Z,98197.75
2022-11-23T03:02:35.882Z,98196.78
2022-11-23T03:03:07.287Z,98191.66
2022-11-23T03:03:38.668Z,98198.25
2022-11-23T03:04:10.082Z,98185.75
2022-11-23T03:04:41.551Z,98186.09
2022-11-23T03:05:12.969Z,98197.78
2022-11-23T03:05:44.383Z,98190.06
2022-11-23T03:06:15.798Z,98188.13
2022-11-23T03:06:47.192Z,98199.38
2022-11-23T03:07:18.704Z,98190.41
2022-11-23T03:07:50.173Z,98187.53
2022-11-23T03:08:21.574Z,98193.47
2022-11-23T03:08:53.111Z,98198.44
2022-11-23T03:09:24.517Z,98192.66
2022-11-23T03:09:55.897Z,98185.75
2022-11-23T03:10:27.285Z,98192.78
2022-11-23T03:10:58.701Z,98192.00
2022-11-23T03:11:30.113Z,98191.00
2022-11-23T03:12:01.512Z,98192.13
2022-11-23T03:12:32.960Z,98196.16
2022-11-23T03:13:04.302Z,98190.38
2022-11-23T03:13:35.788Z,98195.03
2022-11-23T03:14:07.187Z,98193.25
2022-11-23T03:14:38.643Z,98197.00
2022-11-23T03:15:10.062Z,98193.25
2022-11-23T03:15:41.466Z,98198.06
2022-11-23T03:16:12.854Z,98196.47
2022-11-23T03:16:44.282Z,98198.88
2022-11-23T03:17:15.681Z,98205.75
2022-11-23T03:17:47.155Z,98196.78
2022-11-23T03:18:18.553Z,98207.69
2022-11-23T03:18:50.004Z,98200.00
2022-11-23T03:19:21.458Z,98199.84
2022-11-23T03:19:52.898Z,98207.09
2022-11-23T03:20:24.249Z,98200.97
2022-11-23T03:20:55.656Z,98197.91
2022-11-23T03:21:27.039Z,98194.41
2022-11-23T03:21:58.481Z,98204.16
2022-11-23T03:22:29.879Z,98200.66
2022-11-23T03:23:01.292Z,98195.06
2022-11-23T03:23:32.676Z,98197.44
2022-11-23T03:24:04.031Z,98207.06
2022-11-23T03:24:35.406Z,98210.09
2022-11-23T03:25:06.786Z,98196.31
2022-11-23T03:25:38.212Z,98204.16
2022-11-23T03:26:12.832Z,98203.03
2022-11-23T03:26:44.642Z,98206.44
2022-11-23T03:27:16.033Z,98197.13
2022-11-23T03:27:47.411Z,98197.91
2022-11-23T03:28:18.844Z,98215.41
2022-11-23T03:28:50.232Z,98208.03
2022-11-23T03:29:21.634Z,98207.06
2022-11-23T03:29:53.018Z,98197.44
2022-11-23T03:30:24.398Z,98203.25
2022-11-23T03:30:55.825Z,98207.56
2022-11-23T03:31:27.199Z,98211.41
2022-11-23T03:31:58.600Z,98198.72
2022-11-23T03:32:30.045Z,98200.50
2022-11-23T03:33:01.472Z,98203.03
2022-11-23T03:33:32.974Z,98205.47
2022-11-23T03:34:04.376Z,98201.59
2022-11-23T03:34:35.763Z,98196.16
2022-11-23T03:35:07.167Z,98213.63
2022-11-23T03:35:38.554Z,98207.34
2022-11-23T03:36:09.900Z,98209.00
2022-11-23T03:36:41.335Z,98208.19
2022-11-23T03:37:12.791Z,98208.19
2022-11-23T03:37:44.240Z,98196.78
2022-11-23T03:38:15.819Z,98197.13
2022-11-23T03:38:47.263Z,98199.50
2022-11-23T03:39:18.672Z,98204.16
2022-11-23T03:39:50.174Z,98205.13
2022-11-23T03:40:21.560Z,98203.53
2022-11-23T03:40:52.942Z,98200.31
2022-11-23T03:41:24.315Z,98205.47
2022-11-23T03:41:55.697Z,98194.41
2022-11-23T03:42:27.076Z,98208.50
2022-11-23T03:42:58.491Z,98203.53
2022-11-23T03:43:29.861Z,98201.91
2022-11-23T03:44:01.379Z,98201.75
2022-11-23T03:44:32.777Z,98201.59
2022-11-23T03:45:04.231Z,98205.59
2022-11-23T03:45:35.623Z,98204.00
2022-11-23T03:46:07.020Z,98198.88
2022-11-23T03:46:38.437Z,98199.69
2022-11-23T03:47:09.825Z,98204.63
2022-11-23T03:47:41.220Z,98202.75
2022-11-23T03:48:12.671Z,98196.78
2022-11-23T03:48:44.131Z,98201.44
2022-11-23T03:49:15.548Z,98202.91
2022-11-23T03:49:46.951Z,98198.59
2022-11-23T03:50:18.393Z,98194.41
2022-11-23T03:50:49.818Z,98203.69
2022-11-23T03:51:21.222Z,98202.75
2022-11-23T03:51:52.645Z,98201.09
2022-11-23T03:52:24.048Z,98200.81
2022-11-23T03:52:55.516Z,98201.91
2022-11-23T03:53:26.914Z,98196.00
2022-11-23T03:53:58.345Z,98199.19
2022-11-23T03:54:29.786Z,98200.00
2022-11-23T03:55:01.201Z,98196.63
2022-11-23T03:55:32.573Z,98203.53
2022-11-23T03:56:04.006Z,98202.75
2022-11-23T03:56:35.445Z,98200.19
2022-11-23T03:57:06.879Z,98201.09
2022-11-23T03:57:38.262Z,98202.25
2022-11-23T03:58:09.665Z,98206.09
2022-11-23T03:58:41.042Z,98202.25
2022-11-23T03:59:12.502Z,98204.16
2022-11-23T03:59:43.950Z,98209.63
2022-11-23T04:00:15.374Z,98202.56
2022-11-23T04:00:46.816Z,98206.09
2022-11-23T04:01:18.281Z,98204.63
2022-11-23T04:01:49.731Z,98199.19
2022-11-23T04:02:21.139Z,98192.78
2022-11-23T04:02:52.560Z,98192.00
2022-11-23T04:03:23.970Z,98200.31
2022-11-23T04:03:55.350Z,98204.16
2022-11-23T04:04:26.758Z,98206.09
2022-11-23T04:04:58.220Z,98204.50
2022-11-23T04:05:29.623Z,98203.03
2022-11-23T04:06:01.071Z,98202.41
2022-11-23T04:06:32.527Z,98210.91
2022-11-23T04:07:04.035Z,98207.84
2022-11-23T04:07:35.535Z,98204.00
2022-11-23T04:08:07.011Z,98209.44
2022-11-23T04:08:38.392Z,98209.44
2022-11-23T04:09:09.865Z,98209.44
2022-11-23T04:09:41.307Z,98207.53
2022-11-23T04:10:12.810Z,98207.84
2022-11-23T04:10:44.214Z,98201.28
2022-11-23T04:11:15.653Z,98204.63
2022-11-23T04:11:47.034Z,98215.88
2022-11-23T04:12:18.421Z,98203.38
2022-11-23T04:12:49.845Z,98212.50
2022-11-23T04:13:21.319Z,98198.72
2022-11-23T04:13:52.748Z,98202.56
2022-11-23T04:14:24.150Z,98204.16
2022-11-23T04:14:55.568Z,98212.69
2022-11-23T04:15:27.018Z,98206.91
2022-11-23T04:15:58.413Z,98205.31
2022-11-23T04:16:29.819Z,98201.91
2022-11-23T04:17:01.247Z,98204.03
2022-11-23T04:17:32.677Z,98197.91
2022-11-23T04:18:04.120Z,98203.19
2022-11-23T04:18:35.553Z,98216.38
2022-11-23T04:19:06.937Z,98204.34
2022-11-23T04:19:38.336Z,98204.63
2022-11-23T04:20:09.754Z,98205.13
2022-11-23T04:20:41.221Z,98204.97
2022-11-23T04:21:12.663Z,98206.25
2022-11-23T04:21:44.112Z,98211.56
2022-11-23T04:22:15.473Z,98205.63
2022-11-23T04:22:46.889Z,98201.44
2022-11-23T04:23:18.327Z,98201.59
2022-11-23T04:23:49.725Z,98206.25
2022-11-23T04:24:21.093Z,98204.78
2022-11-23T04:24:52.496Z,98199.34
2022-11-23T04:25:23.896Z,98209.00
2022-11-23T04:25:55.304Z,98204.97
2022-11-23T04:26:26.691Z,98205.47
2022-11-23T04:26:58.087Z,98208.50
2022-11-23T04:27:29.462Z,98208.50
2022-11-23T04:28:00.850Z,98205.31
2022-11-23T04:28:32.241Z,98203.84
2022-11-23T04:29:03.617Z,98204.63
2022-11-23T04:29:35.212Z,98203.84
2022-11-23T04:30:06.730Z,98203.03
2022-11-23T04:30:38.128Z,98206.91
2022-11-23T04:31:09.596Z,98198.38
2022-11-23T04:31:40.998Z,98206.91
2022-11-23T04:32:12.450Z,98204.97
2022-11-23T04:32:43.845Z,98201.44
2022-11-23T04:33:15.243Z,98196.00
2022-11-23T04:33:46.644Z,98204.50
2022-11-23T04:34:18.078Z,98197.44
2022-11-23T04:34:49.615Z,98203.38
2022-11-23T04:35:21.103Z,98203.84
2022-11-23T04:35:52.522Z,98202.75
2022-11-23T04:36:24.042Z,98206.25
2022-11-23T04:36:55.482Z,98200.00
2022-11-23T04:37:26.914Z,98203.53
2022-11-23T04:37:58.325Z,98201.91
2022-11-23T04:38:29.742Z,98203.84
2022-11-23T04:39:01.154Z,98204.63
2022-11-23T04:39:32.896Z,98204.34
2022-11-23T04:40:04.483Z,98206.56
2022-11-23T04:40:36.054Z,98201.59
2022-11-23T04:41:07.484Z,98205.13
2022-11-23T04:41:38.972Z,98209.00
2022-11-23T04:42:10.354Z,98210.91
2022-11-23T04:42:41.761Z,98205.75
2022-11-23T04:43:13.168Z,98206.72
2022-11-23T04:43:44.564Z,98208.50
2022-11-23T04:44:15.958Z,98213.94
2022-11-23T04:44:47.333Z,98216.22
2022-11-23T04:45:18.710Z,98208.81
2022-11-23T04:45:50.105Z,98203.69
2022-11-23T04:46:21.468Z,98211.09
2022-11-23T04:46:52.998Z,98222.13
2022-11-23T04:47:24.378Z,98204.78
2022-11-23T04:47:55.755Z,98218.28
2022-11-23T04:48:27.168Z,98219.72
2022-11-23T04:48:58.572Z,98217.66
2022-11-23T04:49:30.200Z,98221.31
2022-11-23T04:50:01.892Z,98215.41
2022-11-23T04:50:33.276Z,98209.63
2022-11-23T04:51:04.700Z,98215.06
2022-11-23T04:51:36.118Z,98218.13
2022-11-23T04:52:07.646Z,98215.06
2022-11-23T04:52:39.082Z,98208.03
2022-11-23T04:53:10.502Z,98215.41
2022-11-23T04:53:41.987Z,98204.63
2022-11-23T04:54:13.387Z,98216.66
2022-11-23T04:54:44.836Z,98223.72
2022-11-23T04:55:16.240Z,98215.88
2022-11-23T04:55:47.665Z,98223.72
2022-11-23T04:56:19.072Z,98210.09
2022-11-23T04:56:50.489Z,98214.44
2022-11-23T04:57:21.945Z,98216.38
2022-11-23T04:57:53.357Z,98221.50
2022-11-23T04:58:26.010Z,98218.59
2022-11-23T04:58:58.178Z,98213.31
2022-11-23T04:59:29.917Z,98212.81
2022-11-23T05:00:01.596Z,98210.91
2022-11-23T05:00:32.998Z,98209.28
2022-11-23T05:01:04.476Z,98212.19
2022-11-23T05:01:35.995Z,98217.81
2022-11-23T05:02:07.405Z,98217.00
2022-11-23T05:02:38.854Z,98205.75
2022-11-23T05:03:10.305Z,98216.50
2022-11-23T05:03:41.697Z,98217.63
2022-11-23T05:04:17.613Z,98217.28
2022-11-23T05:04:49.388Z,98218.28
2022-11-23T05:05:20.806Z,98220.69
2022-11-23T05:05:52.228Z,98214.09
2022-11-23T05:06:23.659Z,98215.41
2022-11-23T05:06:55.057Z,98210.28
2022-11-23T05:07:26.507Z,98213.81
2022-11-23T05:07:57.983Z,98202.25
2022-11-23T05:08:29.369Z,98219.56
2022-11-23T05:09:00.774Z,98223.41
2022-11-23T05:09:32.433Z,98215.88
2022-11-23T05:10:03.984Z,98217.81
2022-11-23T05:10:35.371Z,98219.41
2022-11-23T05:11:06.788Z,98212.81
2022-11-23T05:11:38.181Z,98212.00
2022-11-23T05:12:09.620Z,98219.72
2022-11-23T05:12:41.000Z,98212.50
2022-11-23T05:13:12.455Z,98211.72
2022-11-23T05:13:43.841Z,98210.41
2022-11-23T05:14:15.243Z,98210.91
2022-11-23T05:14:46.659Z,98223.09
2022-11-23T05:15:18.068Z,98215.69
2022-11-23T05:15:49.443Z,98214.09
2022-11-23T05:16:20.870Z,98206.91
2022-11-23T05:16:52.249Z,98210.91
2022-11-23T05:17:23.656Z,98215.25
2022-11-23T05:17:58.941Z,98202.25
2022-11-23T05:18:30.655Z,98213.81
2022-11-23T05:19:02.036Z,98222.47
2022-11-23T05:19:33.659Z,98216.22
2022-11-23T05:20:05.245Z,98217.00
2022-11-23T05:20:36.652Z,98212.81
2022-11-23T05:21:08.046Z,98215.25
2022-11-23T05:21:39.493Z,98214.91
2022-11-23T05:22:10.862Z,98221.00
2022-11-23T05:22:42.280Z,98217.47
2022-11-23T05:23:13.730Z,98217.00
2022-11-23T05:23:45.220Z,98204.84
2022-11-23T05:24:16.624Z,98212.81
2022-11-23T05:24:48.077Z,98216.22
2022-11-23T05:25:19.523Z,98212.81
2022-11-23T05:25:50.938Z,98221.50
2022-11-23T05:26:22.327Z,98217.16
2022-11-23T05:26:56.342Z,98217.63
2022-11-23T05:27:28.029Z,98212.97
2022-11-23T05:28:11.200Z,98221.50
2022-11-23T05:28:48.609Z,98208.19
2022-11-23T05:29:20.131Z,98213.31
2022-11-23T05:29:51.550Z,98208.66
2022-11-23T05:30:23.022Z,98211.72
2022-11-23T05:30:54.478Z,98218.94
2022-11-23T05:31:25.996Z,98212.00
2022-11-23T05:31:57.409Z,98214.09
2022-11-23T05:32:28.798Z,98216.03
2022-11-23T05:33:00.167Z,98214.91
2022-11-23T05:33:31.620Z,98214.91
2022-11-23T05:34:03.270Z,98221.81
2022-11-23T05:34:34.701Z,98209.00
2022-11-23T05:35:06.228Z,98208.31
2022-11-23T05:35:37.769Z,98206.25
2022-11-23T05:36:09.159Z,98216.66
2022-11-23T05:36:42.364Z,98210.09
2022-11-23T05:37:14.132Z,98213.31
2022-11-23T05:37:45.757Z,98221.50
2022-11-23T05:38:17.309Z,98211.72
2022-11-23T05:38:48.763Z,98208.50
2022-11-23T05:39:20.203Z,98224.72
2022-11-23T05:39:51.648Z,98215.88
2022-11-23T05:40:23.111Z,98205.31
2022-11-23T05:40:54.595Z,98226.44
2022-11-23T05:41:25.972Z,98230.31
2022-11-23T05:41:57.439Z,98224.84
2022-11-23T05:42:28.886Z,98222.63
2022-11-23T05:43:00.320Z,98221.81
2022-11-23T05:43:31.740Z,98228.22
2022-11-23T05:44:03.350Z,98216.97
2022-11-23T05:44:34.722Z,98225.00
2022-11-23T05:45:11.081Z,98223.41
2022-11-23T05:45:43.287Z,98219.91
2022-11-23T05:46:14.770Z,98219.41
2022-11-23T05:46:46.247Z,98225.66
2022-11-23T05:47:17.740Z,98226.94
2022-11-23T05:47:49.095Z,98225.97
2022-11-23T05:48:20.482Z,98226.44
2022-11-23T05:48:51.870Z,98227.91
2022-11-23T05:49:23.300Z,98223.25
2022-11-23T05:49:54.681Z,98226.16
2022-11-23T05:50:26.058Z,98230.81
2022-11-23T05:51:03.700Z,98224.56
2022-11-23T05:51:36.742Z,98227.28
2022-11-23T05:52:08.153Z,98226.94
2022-11-23T05:52:39.622Z,98228.38
2022-11-23T05:53:11.109Z,98235.28
2022-11-23T05:53:42.596Z,98227.13
2022-11-23T05:54:13.998Z,98231.44
2022-11-23T05:54:45.461Z,98230.97
2022-11-23T05:55:16.961Z,98234.97
2022-11-23T05:55:48.366Z,98221.66
2022-11-23T05:56:19.791Z,98228.72
2022-11-23T05:56:51.238Z,98230.31
2022-11-23T05:57:22.654Z,98236.72
2022-11-23T05:57:54.068Z,98229.50
2022-11-23T05:58:25.593Z,98225.53
2022-11-23T05:58:57.042Z,98231.59
2022-11-23T05:59:28.492Z,98236.25
2022-11-23T05:59:59.912Z,98233.03
2022-11-23T06:00:31.398Z,98229.50
2022-11-23T06:01:02.847Z,98231.16
2022-11-23T06:01:34.395Z,98230.97
2022-11-23T06:02:05.903Z,98232.56
2022-11-23T06:02:41.020Z,98232.56
2022-11-23T06:03:12.982Z,98238.19
2022-11-23T06:03:44.494Z,98234.16
2022-11-23T06:04:16.141Z,98227.56
2022-11-23T06:04:47.778Z,98232.72
2022-11-23T06:05:19.232Z,98243.13
2022-11-23T06:05:50.751Z,98233.03
2022-11-23T06:06:22.220Z,98230.31
2022-11-23T06:06:53.644Z,98237.22
2022-11-23T06:07:25.135Z,98228.25
2022-11-23T06:07:56.707Z,98242.34
2022-11-23T06:08:28.161Z,98234.16
2022-11-23T06:08:59.568Z,98230.31
2022-11-23T06:09:31.141Z,98234.97
2022-11-23T06:10:02.788Z,98228.72